sensor_id;sensor_type;location;lat;lon;timestamp;temperature;humidity
40758;DHT22;26462;47.384;19.218;2023-07-02T00:00:08;22.00;99.90
40758;DHT22;26462;47.384;19.218;2023-07-02T00:02:36;22.00;99.90
40758;DHT22;26462;47.384;19.218;2023-07-02T00:05:05;22.00;99.90
40758;DHT22;26462;47.384;19.218;2023-07-02T00:07:33;21.90;99.90
40758;DHT22;26462;47.384;19.218;2023-07-02T00:10:02;21.90;99.90
40758;DHT22;26462;47.384;19.218;2023-07-02T00:12:29;21.90;99.90
40758;DHT22;26462;47.384;19.218;2023-07-02T00:14:56;21.90;99.90
40758;DHT22;26462;47.384;19.218;2023-07-02T00:17:23;21.80;99.90
40758;DHT22;26462;47.384;19.218;2023-07-02T00:19:50;21.80;99.90
40758;DHT22;26462;47.384;19.218;2023-07-02T00:22:19;21.80;99.90
40758;DHT22;26462;47.384;19.218;2023-07-02T00:24:47;21.80;99.90
40758;DHT22;26462;47.384;19.218;2023-07-02T00:27:15;21.80;99.90
40758;DHT22;26462;47.384;19.218;2023-07-02T00:29:42;21.80;99.90
40758;DHT22;26462;47.384;19.218;2023-07-02T00:32:09;21.80;99.90
40758;DHT22;26462;47.384;19.218;2023-07-02T00:34:36;21.80;99.90
40758;DHT22;26462;47.384;19.218;2023-07-02T00:37:03;21.80;99.90
40758;DHT22;26462;47.384;19.218;2023-07-02T00:39:31;21.80;99.90
40758;DHT22;26462;47.384;19.218;2023-07-02T00:42:02;21.80;99.90
40758;DHT22;26462;47.384;19.218;2023-07-02T00:44:32;21.80;99.90
40758;DHT22;26462;47.384;19.218;2023-07-02T00:47:00;21.80;99.90
40758;DHT22;26462;47.384;19.218;2023-07-02T00:49:28;21.70;99.90
40758;DHT22;26462;47.384;19.218;2023-07-02T00:51:55;21.80;99.90
40758;DHT22;26462;47.384;19.218;2023-07-02T00:54:23;21.70;99.90
40758;DHT22;26462;47.384;19.218;2023-07-02T00:56:50;21.70;99.90
40758;DHT22;26462;47.384;19.218;2023-07-02T00:59:17;21.60;99.90
40758;DHT22;26462;47.384;19.218;2023-07-02T01:01:45;21.60;99.90
40758;DHT22;26462;47.384;19.218;2023-07-02T01:04:19;21.60;99.90
40758;DHT22;26462;47.384;19.218;2023-07-02T01:06:46;21.60;99.90
40758;DHT22;26462;47.384;19.218;2023-07-02T01:09:14;21.60;99.90
40758;DHT22;26462;47.384;19.218;2023-07-02T01:11:45;21.60;99.90
40758;DHT22;26462;47.384;19.218;2023-07-02T01:14:33;21.60;99.90
40758;DHT22;26462;47.384;19.218;2023-07-02T01:17:03;21.60;99.90
40758;DHT22;26462;47.384;19.218;2023-07-02T01:22:08;21.60;99.90
40758;DHT22;26462;47.384;19.218;2023-07-02T01:24:39;21.50;99.90
40758;DHT22;26462;47.384;19.218;2023-07-02T01:27:06;21.50;99.90
40758;DHT22;26462;47.384;19.218;2023-07-02T01:29:33;21.60;99.90
40758;DHT22;26462;47.384;19.218;2023-07-02T01:32:04;21.50;99.90
40758;DHT22;26462;47.384;19.218;2023-07-02T01:34:32;21.50;99.90
40758;DHT22;26462;47.384;19.218;2023-07-02T01:37:00;21.50;99.90
40758;DHT22;26462;47.384;19.218;2023-07-02T01:39:27;21.40;99.90
40758;DHT22;26462;47.384;19.218;2023-07-02T01:41:55;21.40;99.90
40758;DHT22;26462;47.384;19.218;2023-07-02T01:44:23;21.40;99.90
40758;DHT22;26462;47.384;19.218;2023-07-02T01:46:50;21.40;99.90
40758;DHT22;26462;47.384;19.218;2023-07-02T01:49:20;21.40;99.90
40758;DHT22;26462;47.384;19.218;2023-07-02T01:51:52;21.40;99.90
40758;DHT22;26462;47.384;19.218;2023-07-02T01:54:20;21.40;99.90
40758;DHT22;26462;47.384;19.218;2023-07-02T01:56:48;21.40;99.90
40758;DHT22;26462;47.384;19.218;2023-07-02T01:59:15;21.40;99.90
40758;DHT22;26462;47.384;19.218;2023-07-02T02:01:43;21.40;99.90
40758;DHT22;26462;47.384;19.218;2023-07-02T02:04:11;21.40;99.90
40758;DHT22;26462;47.384;19.218;2023-07-02T02:06:40;21.40;99.90
40758;DHT22;26462;47.384;19.218;2023-07-02T02:09:08;21.40;99.90
40758;DHT22;26462;47.384;19.218;2023-07-02T02:11:42;21.40;99.90
40758;DHT22;26462;47.384;19.218;2023-07-02T02:14:10;21.40;99.90
40758;DHT22;26462;47.384;19.218;2023-07-02T02:16:37;21.40;99.90
40758;DHT22;26462;47.384;19.218;2023-07-02T02:19:05;21.30;99.90
40758;DHT22;26462;47.384;19.218;2023-07-02T02:21:32;21.40;99.90
40758;DHT22;26462;47.384;19.218;2023-07-02T02:24:00;21.40;99.90
40758;DHT22;26462;47.384;19.218;2023-07-02T02:26:27;21.30;99.90
40758;DHT22;26462;47.384;19.218;2023-07-02T02:28:54;21.40;99.90
40758;DHT22;26462;47.384;19.218;2023-07-02T02:31:21;21.30;99.90
40758;DHT22;26462;47.384;19.218;2023-07-02T02:33:49;20.60;99.90
40758;DHT22;26462;47.384;19.218;2023-07-02T02:36:17;21.30;99.90
40758;DHT22;26462;47.384;19.218;2023-07-02T02:38:44;21.30;99.90
40758;DHT22;26462;47.384;19.218;2023-07-02T02:41:12;21.30;99.90
40758;DHT22;26462;47.384;19.218;2023-07-02T02:43:45;21.30;99.90
40758;DHT22;26462;47.384;19.218;2023-07-02T02:46:22;21.30;99.90
40758;DHT22;26462;47.384;19.218;2023-07-02T02:48:51;21.30;99.90
40758;DHT22;26462;47.384;19.218;2023-07-02T02:51:18;21.30;99.90
40758;DHT22;26462;47.384;19.218;2023-07-02T02:53:46;21.30;99.90
40758;DHT22;26462;47.384;19.218;2023-07-02T02:56:13;21.30;99.90
40758;DHT22;26462;47.384;19.218;2023-07-02T02:58:40;21.30;99.90
40758;DHT22;26462;47.384;19.218;2023-07-02T03:01:08;21.30;99.90
40758;DHT22;26462;47.384;19.218;2023-07-02T03:03:39;21.30;99.90
40758;DHT22;26462;47.384;19.218;2023-07-02T03:06:13;21.30;99.90
40758;DHT22;26462;47.384;19.218;2023-07-02T03:08:42;21.30;99.90
40758;DHT22;26462;47.384;19.218;2023-07-02T03:11:10;21.30;99.90
40758;DHT22;26462;47.384;19.218;2023-07-02T03:13:37;21.30;99.90
40758;DHT22;26462;47.384;19.218;2023-07-02T03:16:05;21.30;99.90
40758;DHT22;26462;47.384;19.218;2023-07-02T03:18:32;21.30;99.90
40758;DHT22;26462;47.384;19.218;2023-07-02T03:20:59;21.30;99.90
40758;DHT22;26462;47.384;19.218;2023-07-02T03:23:27;21.30;99.90
40758;DHT22;26462;47.384;19.218;2023-07-02T03:25:54;21.30;99.90
40758;DHT22;26462;47.384;19.218;2023-07-02T03:28:21;21.30;99.90
40758;DHT22;26462;47.384;19.218;2023-07-02T03:30:48;21.30;99.90
40758;DHT22;26462;47.384;19.218;2023-07-02T03:33:16;21.30;99.90
40758;DHT22;26462;47.384;19.218;2023-07-02T03:35:43;21.30;99.90
40758;DHT22;26462;47.384;19.218;2023-07-02T03:38:10;21.30;99.90
40758;DHT22;26462;47.384;19.218;2023-07-02T03:40:37;21.30;99.90
40758;DHT22;26462;47.384;19.218;2023-07-02T03:43:06;21.30;99.90
40758;DHT22;26462;47.384;19.218;2023-07-02T03:45:33;21.30;99.90
40758;DHT22;26462;47.384;19.218;2023-07-02T03:48:00;21.40;99.90
40758;DHT22;26462;47.384;19.218;2023-07-02T03:50:27;21.40;99.90
40758;DHT22;26462;47.384;19.218;2023-07-02T03:52:54;21.40;99.90
40758;DHT22;26462;47.384;19.218;2023-07-02T03:55:21;21.40;99.90
40758;DHT22;26462;47.384;19.218;2023-07-02T03:57:48;21.40;99.90
40758;DHT22;26462;47.384;19.218;2023-07-02T04:00:16;21.40;99.90
40758;DHT22;26462;47.384;19.218;2023-07-02T04:02:43;21.40;99.90
40758;DHT22;26462;47.384;19.218;2023-07-02T04:05:10;21.40;99.90
40758;DHT22;26462;47.384;19.218;2023-07-02T04:07:38;21.40;99.90
40758;DHT22;26462;47.384;19.218;2023-07-02T04:10:05;21.50;99.90
40758;DHT22;26462;47.384;19.218;2023-07-02T04:12:33;21.50;99.90
40758;DHT22;26462;47.384;19.218;2023-07-02T04:15:00;21.50;99.90
40758;DHT22;26462;47.384;19.218;2023-07-02T04:17:27;21.50;99.90
40758;DHT22;26462;47.384;19.218;2023-07-02T04:19:54;21.50;99.90
40758;DHT22;26462;47.384;19.218;2023-07-02T04:22:22;21.60;99.80
40758;DHT22;26462;47.384;19.218;2023-07-02T04:24:49;21.60;99.40
40758;DHT22;26462;47.384;19.218;2023-07-02T04:27:19;21.60;99.40
40758;DHT22;26462;47.384;19.218;2023-07-02T04:30:07;21.60;99.90
40758;DHT22;26462;47.384;19.218;2023-07-02T04:32:36;21.70;99.90
40758;DHT22;26462;47.384;19.218;2023-07-02T04:35:03;21.70;99.80
40758;DHT22;26462;47.384;19.218;2023-07-02T04:37:31;21.80;99.90
40758;DHT22;26462;47.384;19.218;2023-07-02T04:39:58;21.70;99.30
40758;DHT22;26462;47.384;19.218;2023-07-02T04:42:28;21.80;98.50
40758;DHT22;26462;47.384;19.218;2023-07-02T04:44:58;21.80;98.70
40758;DHT22;26462;47.384;19.218;2023-07-02T04:47:29;21.80;98.80
40758;DHT22;26462;47.384;19.218;2023-07-02T04:49:57;21.80;98.00
40758;DHT22;26462;47.384;19.218;2023-07-02T04:52:24;21.80;98.80
40758;DHT22;26462;47.384;19.218;2023-07-02T04:54:53;21.80;97.60
40758;DHT22;26462;47.384;19.218;2023-07-02T04:57:20;21.80;96.60
40758;DHT22;26462;47.384;19.218;2023-07-02T04:59:47;21.80;96.60
40758;DHT22;26462;47.384;19.218;2023-07-02T05:02:16;21.80;96.10
40758;DHT22;26462;47.384;19.218;2023-07-02T05:04:43;21.80;95.80
40758;DHT22;26462;47.384;19.218;2023-07-02T05:07:11;21.90;95.70
40758;DHT22;26462;47.384;19.218;2023-07-02T05:09:38;21.90;96.00
40758;DHT22;26462;47.384;19.218;2023-07-02T05:12:05;22.00;95.50
40758;DHT22;26462;47.384;19.218;2023-07-02T05:14:33;22.10;95.70
40758;DHT22;26462;47.384;19.218;2023-07-02T05:17:00;22.10;95.30
40758;DHT22;26462;47.384;19.218;2023-07-02T05:19:28;22.10;94.70
40758;DHT22;26462;47.384;19.218;2023-07-02T05:21:55;22.10;94.60
40758;DHT22;26462;47.384;19.218;2023-07-02T05:24:22;22.10;94.20
40758;DHT22;26462;47.384;19.218;2023-07-02T05:26:49;22.10;94.00
40758;DHT22;26462;47.384;19.218;2023-07-02T05:29:17;22.20;94.00
40758;DHT22;26462;47.384;19.218;2023-07-02T05:31:44;22.30;94.40
40758;DHT22;26462;47.384;19.218;2023-07-02T05:34:12;22.30;94.80
40758;DHT22;26462;47.384;19.218;2023-07-02T05:36:39;22.40;94.60
40758;DHT22;26462;47.384;19.218;2023-07-02T05:39:08;22.50;94.60
40758;DHT22;26462;47.384;19.218;2023-07-02T05:41:38;22.50;94.30
40758;DHT22;26462;47.384;19.218;2023-07-02T05:44:05;22.40;94.30
40758;DHT22;26462;47.384;19.218;2023-07-02T05:46:32;22.30;94.40
40758;DHT22;26462;47.384;19.218;2023-07-02T05:49:01;22.40;94.50
40758;DHT22;26462;47.384;19.218;2023-07-02T05:51:28;22.30;94.30
40758;DHT22;26462;47.384;19.218;2023-07-02T05:53:55;22.30;94.20
40758;DHT22;26462;47.384;19.218;2023-07-02T05:56:24;22.40;94.60
40758;DHT22;26462;47.384;19.218;2023-07-02T05:58:52;22.60;94.40
40758;DHT22;26462;47.384;19.218;2023-07-02T06:01:19;22.60;94.30
40758;DHT22;26462;47.384;19.218;2023-07-02T06:03:49;22.60;93.90
40758;DHT22;26462;47.384;19.218;2023-07-02T06:06:17;22.60;94.10
40758;DHT22;26462;47.384;19.218;2023-07-02T06:08:44;22.70;93.50
40758;DHT22;26462;47.384;19.218;2023-07-02T06:11:12;22.80;93.80
40758;DHT22;26462;47.384;19.218;2023-07-02T06:13:40;22.90;94.60
40758;DHT22;26462;47.384;19.218;2023-07-02T06:16:07;23.40;92.90
40758;DHT22;26462;47.384;19.218;2023-07-02T06:18:35;23.80;91.30
40758;DHT22;26462;47.384;19.218;2023-07-02T06:21:03;23.90;90.70
40758;DHT22;26462;47.384;19.218;2023-07-02T06:23:40;23.90;89.90
40758;DHT22;26462;47.384;19.218;2023-07-02T06:26:07;23.90;90.40
40758;DHT22;26462;47.384;19.218;2023-07-02T06:28:35;23.70;89.90
40758;DHT22;26462;47.384;19.218;2023-07-02T06:31:02;23.60;90.60
40758;DHT22;26462;47.384;19.218;2023-07-02T06:33:29;23.70;90.70
40758;DHT22;26462;47.384;19.218;2023-07-02T06:35:57;23.80;91.00
40758;DHT22;26462;47.384;19.218;2023-07-02T06:38:24;24.20;90.60
40758;DHT22;26462;47.384;19.218;2023-07-02T06:40:51;24.60;89.30
40758;DHT22;26462;47.384;19.218;2023-07-02T06:43:18;24.60;87.30
40758;DHT22;26462;47.384;19.218;2023-07-02T06:45:45;24.40;87.10
40758;DHT22;26462;47.384;19.218;2023-07-02T06:48:13;24.20;88.10
40758;DHT22;26462;47.384;19.218;2023-07-02T06:50:44;24.10;88.90
40758;DHT22;26462;47.384;19.218;2023-07-02T06:53:13;24.10;89.10
40758;DHT22;26462;47.384;19.218;2023-07-02T06:55:40;24.30;89.30
40758;DHT22;26462;47.384;19.218;2023-07-02T06:58:07;24.90;87.60
40758;DHT22;26462;47.384;19.218;2023-07-02T07:00:35;25.30;85.00
40758;DHT22;26462;47.384;19.218;2023-07-02T07:03:05;25.50;82.80
40758;DHT22;26462;47.384;19.218;2023-07-02T07:05:32;25.70;81.30
40758;DHT22;26462;47.384;19.218;2023-07-02T07:08:00;25.90;82.30
40758;DHT22;26462;47.384;19.218;2023-07-02T07:10:30;26.00;80.20
40758;DHT22;26462;47.384;19.218;2023-07-02T07:13:02;26.10;79.00
40758;DHT22;26462;47.384;19.218;2023-07-02T07:15:32;26.30;77.70
40758;DHT22;26462;47.384;19.218;2023-07-02T07:17:59;26.40;77.40
40758;DHT22;26462;47.384;19.218;2023-07-02T07:20:26;26.40;76.20
40758;DHT22;26462;47.384;19.218;2023-07-02T07:22:53;26.30;76.00
40758;DHT22;26462;47.384;19.218;2023-07-02T07:25:20;26.10;76.10
40758;DHT22;26462;47.384;19.218;2023-07-02T07:27:47;26.30;74.90
40758;DHT22;26462;47.384;19.218;2023-07-02T07:30:14;26.30;75.30
40758;DHT22;26462;47.384;19.218;2023-07-02T07:32:41;26.50;74.90
40758;DHT22;26462;47.384;19.218;2023-07-02T07:35:09;26.70;75.00
40758;DHT22;26462;47.384;19.218;2023-07-02T07:37:36;26.70;73.90
40758;DHT22;26462;47.384;19.218;2023-07-02T07:40:04;26.70;72.70
40758;DHT22;26462;47.384;19.218;2023-07-02T07:42:32;26.60;73.10
40758;DHT22;26462;47.384;19.218;2023-07-02T07:45:00;26.60;73.40
40758;DHT22;26462;47.384;19.218;2023-07-02T07:47:27;26.30;73.20
40758;DHT22;26462;47.384;19.218;2023-07-02T07:49:54;26.10;74.10
40758;DHT22;26462;47.384;19.218;2023-07-02T07:52:21;26.30;74.00
40758;DHT22;26462;47.384;19.218;2023-07-02T07:54:48;26.50;73.10
40758;DHT22;26462;47.384;19.218;2023-07-02T07:57:15;26.70;72.20
40758;DHT22;26462;47.384;19.218;2023-07-02T07:59:43;26.70;71.50
40758;DHT22;26462;47.384;19.218;2023-07-02T08:02:10;26.90;70.70
40758;DHT22;26462;47.384;19.218;2023-07-02T08:04:37;26.90;70.30
40758;DHT22;26462;47.384;19.218;2023-07-02T08:07:05;26.80;70.70
40758;DHT22;26462;47.384;19.218;2023-07-02T08:09:33;26.90;70.20
40758;DHT22;26462;47.384;19.218;2023-07-02T08:12:00;27.00;69.90
40758;DHT22;26462;47.384;19.218;2023-07-02T08:14:27;27.10;69.70
40758;DHT22;26462;47.384;19.218;2023-07-02T08:16:54;27.00;69.50
40758;DHT22;26462;47.384;19.218;2023-07-02T08:19:21;27.10;70.30
40758;DHT22;26462;47.384;19.218;2023-07-02T08:21:50;27.40;70.50
40758;DHT22;26462;47.384;19.218;2023-07-02T08:24:19;27.40;69.20
40758;DHT22;26462;47.384;19.218;2023-07-02T08:26:46;27.40;67.50
40758;DHT22;26462;47.384;19.218;2023-07-02T08:29:15;27.40;67.70
40758;DHT22;26462;47.384;19.218;2023-07-02T08:31:42;27.30;66.40
40758;DHT22;26462;47.384;19.218;2023-07-02T08:34:10;27.50;68.20
40758;DHT22;26462;47.384;19.218;2023-07-02T08:36:37;27.40;65.50
40758;DHT22;26462;47.384;19.218;2023-07-02T08:39:04;27.30;65.70
40758;DHT22;26462;47.384;19.218;2023-07-02T08:41:42;27.10;65.00
40758;DHT22;26462;47.384;19.218;2023-07-02T08:44:11;27.30;65.40
40758;DHT22;26462;47.384;19.218;2023-07-02T08:46:40;27.50;65.00
40758;DHT22;26462;47.384;19.218;2023-07-02T08:49:09;27.80;65.10
40758;DHT22;26462;47.384;19.218;2023-07-02T08:51:36;27.70;64.20
40758;DHT22;26462;47.384;19.218;2023-07-02T08:54:04;27.80;64.90
40758;DHT22;26462;47.384;19.218;2023-07-02T08:56:31;27.50;63.20
40758;DHT22;26462;47.384;19.218;2023-07-02T08:58:58;27.50;64.30
40758;DHT22;26462;47.384;19.218;2023-07-02T09:01:26;27.30;64.30
40758;DHT22;26462;47.384;19.218;2023-07-02T09:03:58;27.50;65.10
40758;DHT22;26462;47.384;19.218;2023-07-02T09:06:27;27.70;65.30
40758;DHT22;26462;47.384;19.218;2023-07-02T09:09:03;27.70;65.80
40758;DHT22;26462;47.384;19.218;2023-07-02T09:11:31;27.70;67.60
40758;DHT22;26462;47.384;19.218;2023-07-02T09:13:58;27.60;67.50
40758;DHT22;26462;47.384;19.218;2023-07-02T09:16:30;27.70;65.60
40758;DHT22;26462;47.384;19.218;2023-07-02T09:19:08;27.60;65.90
40758;DHT22;26462;47.384;19.218;2023-07-02T09:21:42;27.60;65.80
40758;DHT22;26462;47.384;19.218;2023-07-02T09:24:24;27.60;63.30
40758;DHT22;26462;47.384;19.218;2023-07-02T09:26:59;27.50;62.00
40758;DHT22;26462;47.384;19.218;2023-07-02T09:29:31;27.50;62.30
40758;DHT22;26462;47.384;19.218;2023-07-02T09:32:07;27.50;63.70
40758;DHT22;26462;47.384;19.218;2023-07-02T09:34:38;27.40;61.70
40758;DHT22;26462;47.384;19.218;2023-07-02T09:37:07;27.70;63.20
40758;DHT22;26462;47.384;19.218;2023-07-02T09:39:35;27.80;63.40
40758;DHT22;26462;47.384;19.218;2023-07-02T09:42:06;27.70;63.70
40758;DHT22;26462;47.384;19.218;2023-07-02T09:44:35;27.70;64.60
40758;DHT22;26462;47.384;19.218;2023-07-02T09:49:41;27.40;66.00
40758;DHT22;26462;47.384;19.218;2023-07-02T09:52:11;27.20;66.20
40758;DHT22;26462;47.384;19.218;2023-07-02T09:54:38;27.30;66.50
40758;DHT22;26462;47.384;19.218;2023-07-02T09:57:06;27.40;67.00
40758;DHT22;26462;47.384;19.218;2023-07-02T09:59:35;27.40;65.80
40758;DHT22;26462;47.384;19.218;2023-07-02T10:02:02;27.40;65.60
40758;DHT22;26462;47.384;19.218;2023-07-02T10:04:40;27.20;66.50
40758;DHT22;26462;47.384;19.218;2023-07-02T10:07:08;27.30;67.60
40758;DHT22;26462;47.384;19.218;2023-07-02T10:09:42;27.30;68.10
40758;DHT22;26462;47.384;19.218;2023-07-02T10:12:22;27.30;68.20
40758;DHT22;26462;47.384;19.218;2023-07-02T10:14:52;27.40;69.10
40758;DHT22;26462;47.384;19.218;2023-07-02T10:17:27;27.60;69.50
40758;DHT22;26462;47.384;19.218;2023-07-02T10:22:28;27.80;68.90
40758;DHT22;26462;47.384;19.218;2023-07-02T10:24:56;27.90;69.60
40758;DHT22;26462;47.384;19.218;2023-07-02T10:27:40;27.80;68.80
40758;DHT22;26462;47.384;19.218;2023-07-02T10:30:10;27.60;67.80
40758;DHT22;26462;47.384;19.218;2023-07-02T10:32:38;27.60;66.80
40758;DHT22;26462;47.384;19.218;2023-07-02T10:35:23;27.70;68.00
40758;DHT22;26462;47.384;19.218;2023-07-02T10:37:52;27.70;67.40
40758;DHT22;26462;47.384;19.218;2023-07-02T10:40:22;27.70;65.70
40758;DHT22;26462;47.384;19.218;2023-07-02T10:42:51;27.80;65.80
40758;DHT22;26462;47.384;19.218;2023-07-02T10:45:19;27.90;66.40
40758;DHT22;26462;47.384;19.218;2023-07-02T10:47:47;27.80;67.70
40758;DHT22;26462;47.384;19.218;2023-07-02T10:50:16;27.90;67.80
40758;DHT22;26462;47.384;19.218;2023-07-02T10:52:43;27.80;67.90
40758;DHT22;26462;47.384;19.218;2023-07-02T10:55:23;28.00;68.70
40758;DHT22;26462;47.384;19.218;2023-07-02T10:58:05;27.90;67.50
40758;DHT22;26462;47.384;19.218;2023-07-02T11:00:33;27.90;67.10
40758;DHT22;26462;47.384;19.218;2023-07-02T11:03:23;28.10;66.80
40758;DHT22;26462;47.384;19.218;2023-07-02T11:05:51;27.90;65.70
40758;DHT22;26462;47.384;19.218;2023-07-02T11:08:20;27.50;65.80
40758;DHT22;26462;47.384;19.218;2023-07-02T11:10:48;27.40;66.30
40758;DHT22;26462;47.384;19.218;2023-07-02T11:13:17;27.60;65.50
40758;DHT22;26462;47.384;19.218;2023-07-02T11:15:45;27.70;66.50
40758;DHT22;26462;47.384;19.218;2023-07-02T11:18:17;27.90;66.60
40758;DHT22;26462;47.384;19.218;2023-07-02T11:20:47;27.80;65.70
40758;DHT22;26462;47.384;19.218;2023-07-02T11:23:22;27.70;66.50
40758;DHT22;26462;47.384;19.218;2023-07-02T11:26:09;27.40;67.40
40758;DHT22;26462;47.384;19.218;2023-07-02T11:28:46;27.30;69.10
40758;DHT22;26462;47.384;19.218;2023-07-02T11:31:14;27.50;66.90
40758;DHT22;26462;47.384;19.218;2023-07-02T11:33:50;27.70;66.90
40758;DHT22;26462;47.384;19.218;2023-07-02T11:36:24;27.90;67.20
40758;DHT22;26462;47.384;19.218;2023-07-02T11:38:51;28.10;67.30
40758;DHT22;26462;47.384;19.218;2023-07-02T11:41:19;28.00;66.50
40758;DHT22;26462;47.384;19.218;2023-07-02T11:43:48;27.50;68.30
40758;DHT22;26462;47.384;19.218;2023-07-02T11:46:15;27.30;69.30
40758;DHT22;26462;47.384;19.218;2023-07-02T11:48:42;27.30;69.80
40758;DHT22;26462;47.384;19.218;2023-07-02T11:51:09;27.00;69.70
40758;DHT22;26462;47.384;19.218;2023-07-02T11:53:36;27.00;69.70
40758;DHT22;26462;47.384;19.218;2023-07-02T11:56:04;26.90;69.40
40758;DHT22;26462;47.384;19.218;2023-07-02T11:58:31;27.00;70.50
40758;DHT22;26462;47.384;19.218;2023-07-02T12:00:58;27.30;69.10
40758;DHT22;26462;47.384;19.218;2023-07-02T12:03:28;27.40;68.90
40758;DHT22;26462;47.384;19.218;2023-07-02T12:05:56;27.50;67.60
40758;DHT22;26462;47.384;19.218;2023-07-02T12:08:23;27.70;67.70
40758;DHT22;26462;47.384;19.218;2023-07-02T12:10:51;27.70;67.20
40758;DHT22;26462;47.384;19.218;2023-07-02T12:13:18;27.70;67.30
40758;DHT22;26462;47.384;19.218;2023-07-02T12:15:48;27.70;66.00
40758;DHT22;26462;47.384;19.218;2023-07-02T12:18:17;27.70;66.00
40758;DHT22;26462;47.384;19.218;2023-07-02T12:20:44;27.50;66.30
40758;DHT22;26462;47.384;19.218;2023-07-02T12:23:11;27.70;67.60
40758;DHT22;26462;47.384;19.218;2023-07-02T12:25:39;27.60;67.80
40758;DHT22;26462;47.384;19.218;2023-07-02T12:28:06;27.60;68.00
40758;DHT22;26462;47.384;19.218;2023-07-02T12:30:35;27.70;67.80
40758;DHT22;26462;47.384;19.218;2023-07-02T12:33:02;27.70;67.10
40758;DHT22;26462;47.384;19.218;2023-07-02T12:35:30;28.00;67.00
40758;DHT22;26462;47.384;19.218;2023-07-02T12:37:57;28.10;67.80
40758;DHT22;26462;47.384;19.218;2023-07-02T12:40:24;28.00;67.40
40758;DHT22;26462;47.384;19.218;2023-07-02T12:42:52;28.10;66.20
40758;DHT22;26462;47.384;19.218;2023-07-02T12:45:20;28.20;67.10
40758;DHT22;26462;47.384;19.218;2023-07-02T12:47:48;28.10;66.00
40758;DHT22;26462;47.384;19.218;2023-07-02T12:50:15;28.20;66.70
40758;DHT22;26462;47.384;19.218;2023-07-02T12:52:42;28.30;65.70
40758;DHT22;26462;47.384;19.218;2023-07-02T12:55:09;28.10;65.00
40758;DHT22;26462;47.384;19.218;2023-07-02T12:57:36;28.00;65.00
40758;DHT22;26462;47.384;19.218;2023-07-02T13:00:04;27.90;65.10
40758;DHT22;26462;47.384;19.218;2023-07-02T13:02:36;28.00;65.90
40758;DHT22;26462;47.384;19.218;2023-07-02T13:05:20;28.00;66.30
40758;DHT22;26462;47.384;19.218;2023-07-02T13:07:50;28.10;65.60
40758;DHT22;26462;47.384;19.218;2023-07-02T13:10:17;28.10;65.50
40758;DHT22;26462;47.384;19.218;2023-07-02T13:12:45;27.80;65.70
40758;DHT22;26462;47.384;19.218;2023-07-02T13:15:13;27.90;66.60
40758;DHT22;26462;47.384;19.218;2023-07-02T13:17:41;28.00;65.40
40758;DHT22;26462;47.384;19.218;2023-07-02T13:20:28;27.90;65.50
40758;DHT22;26462;47.384;19.218;2023-07-02T13:22:56;28.00;64.90
40758;DHT22;26462;47.384;19.218;2023-07-02T13:25:25;28.10;64.60
40758;DHT22;26462;47.384;19.218;2023-07-02T13:27:53;28.00;63.70
40758;DHT22;26462;47.384;19.218;2023-07-02T13:30:21;27.60;64.70
40758;DHT22;26462;47.384;19.218;2023-07-02T13:32:50;27.40;65.00
40758;DHT22;26462;47.384;19.218;2023-07-02T13:35:19;27.50;65.30
40758;DHT22;26462;47.384;19.218;2023-07-02T13:38:07;27.70;65.40
40758;DHT22;26462;47.384;19.218;2023-07-02T13:40:34;27.60;65.00
40758;DHT22;26462;47.384;19.218;2023-07-02T13:43:02;27.50;66.20
40758;DHT22;26462;47.384;19.218;2023-07-02T13:45:30;27.60;67.10
40758;DHT22;26462;47.384;19.218;2023-07-02T13:47:58;27.70;66.80
40758;DHT22;26462;47.384;19.218;2023-07-02T13:50:25;28.10;67.20
40758;DHT22;26462;47.384;19.218;2023-07-02T13:52:53;28.10;65.00
40758;DHT22;26462;47.384;19.218;2023-07-02T13:55:21;28.10;65.10
40758;DHT22;26462;47.384;19.218;2023-07-02T13:57:54;27.80;63.50
40758;DHT22;26462;47.384;19.218;2023-07-02T14:00:24;27.90;63.50
40758;DHT22;26462;47.384;19.218;2023-07-02T14:02:52;27.60;63.30
40758;DHT22;26462;47.384;19.218;2023-07-02T14:05:20;27.50;64.40
40758;DHT22;26462;47.384;19.218;2023-07-02T14:07:48;27.70;65.00
40758;DHT22;26462;47.384;19.218;2023-07-02T14:10:16;28.00;65.30
40758;DHT22;26462;47.384;19.218;2023-07-02T14:12:44;27.80;64.40
40758;DHT22;26462;47.384;19.218;2023-07-02T14:15:12;27.70;64.60
40758;DHT22;26462;47.384;19.218;2023-07-02T14:17:40;28.00;64.70
40758;DHT22;26462;47.384;19.218;2023-07-02T14:20:09;28.10;65.00
40758;DHT22;26462;47.384;19.218;2023-07-02T14:22:37;27.90;64.70
40758;DHT22;26462;47.384;19.218;2023-07-02T14:25:05;27.60;64.00
40758;DHT22;26462;47.384;19.218;2023-07-02T14:27:33;27.40;63.90
40758;DHT22;26462;47.384;19.218;2023-07-02T14:30:00;27.40;64.10
40758;DHT22;26462;47.384;19.218;2023-07-02T14:32:30;27.60;64.40
40758;DHT22;26462;47.384;19.218;2023-07-02T14:34:58;27.50;64.50
40758;DHT22;26462;47.384;19.218;2023-07-02T14:37:25;27.40;64.50
40758;DHT22;26462;47.384;19.218;2023-07-02T14:39:53;27.30;65.30
40758;DHT22;26462;47.384;19.218;2023-07-02T14:42:33;27.40;65.40
40758;DHT22;26462;47.384;19.218;2023-07-02T14:45:00;27.30;65.60
40758;DHT22;26462;47.384;19.218;2023-07-02T14:47:29;27.30;65.20
40758;DHT22;26462;47.384;19.218;2023-07-02T14:49:57;27.40;65.80
40758;DHT22;26462;47.384;19.218;2023-07-02T14:52:24;27.70;66.30
40758;DHT22;26462;47.384;19.218;2023-07-02T14:54:51;27.90;65.90
40758;DHT22;26462;47.384;19.218;2023-07-02T14:57:18;27.90;65.40
40758;DHT22;26462;47.384;19.218;2023-07-02T14:59:46;28.00;66.00
40758;DHT22;26462;47.384;19.218;2023-07-02T15:02:14;27.80;65.20
40758;DHT22;26462;47.384;19.218;2023-07-02T15:04:41;28.00;65.60
40758;DHT22;26462;47.384;19.218;2023-07-02T15:07:10;28.00;64.90
40758;DHT22;26462;47.384;19.218;2023-07-02T15:09:37;28.00;65.90
40758;DHT22;26462;47.384;19.218;2023-07-02T15:12:05;27.90;64.60
40758;DHT22;26462;47.384;19.218;2023-07-02T15:14:32;27.90;65.90
40758;DHT22;26462;47.384;19.218;2023-07-02T15:16:59;27.90;66.20
40758;DHT22;26462;47.384;19.218;2023-07-02T15:19:26;27.90;66.30
40758;DHT22;26462;47.384;19.218;2023-07-02T15:21:53;27.80;66.40
40758;DHT22;26462;47.384;19.218;2023-07-02T15:24:23;27.60;65.90
40758;DHT22;26462;47.384;19.218;2023-07-02T15:26:50;27.50;66.80
40758;DHT22;26462;47.384;19.218;2023-07-02T15:29:17;27.50;66.50
40758;DHT22;26462;47.384;19.218;2023-07-02T15:31:44;27.50;66.30